sensor_id;sensor_type;location;lat;lon;timestamp;P1;durP1;ratioP1;P2;durP2;ratioP2
4198;SDS011;2113;50.946;14.610;2023-05-16T00:01:04;15.95;;;12.57;;
4198;SDS011;2113;50.946;14.610;2023-05-16T00:03:32;18.00;;;11.73;;
4198;SDS011;2113;50.946;14.610;2023-05-16T00:06:02;20.05;;;13.55;;
4198;SDS011;2113;50.946;14.610;2023-05-16T00:08:31;17.02;;;12.20;;
4198;SDS011;2113;50.946;14.610;2023-05-16T00:10:59;15.52;;;12.40;;
4198;SDS011;2113;50.946;14.610;2023-05-16T00:13:29;17.08;;;11.45;;
4198;SDS011;2113;50.946;14.610;2023-05-16T00:15:57;22.80;;;14.32;;
4198;SDS011;2113;50.946;14.610;2023-05-16T00:18:28;16.20;;;12.93;;
4198;SDS011;2113;50.946;14.610;2023-05-16T00:20:56;17.52;;;12.85;;
4198;SDS011;2113;50.946;14.610;2023-05-16T00:23:25;18.23;;;12.15;;
4198;SDS011;2113;50.946;14.610;2023-05-16T00:25:54;17.40;;;13.85;;
4198;SDS011;2113;50.946;14.610;2023-05-16T00:28:22;16.75;;;12.95;;
4198;SDS011;2113;50.946;14.610;2023-05-16T00:30:52;23.70;;;13.18;;
4198;SDS011;2113;50.946;14.610;2023-05-16T00:33:22;18.70;;;13.48;;
4198;SDS011;2113;50.946;14.610;2023-05-16T00:35:51;20.02;;;14.98;;
4198;SDS011;2113;50.946;14.610;2023-05-16T00:38:19;19.30;;;15.07;;
4198;SDS011;2113;50.946;14.610;2023-05-16T00:40:48;20.52;;;14.60;;
4198;SDS011;2113;50.946;14.610;2023-05-16T00:43:16;23.08;;;13.35;;
4198;SDS011;2113;50.946;14.610;2023-05-16T00:45:44;18.58;;;13.60;;
4198;SDS011;2113;50.946;14.610;2023-05-16T00:48:14;21.42;;;14.45;;
4198;SDS011;2113;50.946;14.610;2023-05-16T00:50:42;18.38;;;13.98;;
4198;SDS011;2113;50.946;14.610;2023-05-16T00:53:11;18.90;;;13.52;;
4198;SDS011;2113;50.946;14.610;2023-05-16T00:55:41;20.38;;;14.43;;
4198;SDS011;2113;50.946;14.610;2023-05-16T00:58:10;21.50;;;15.02;;
4198;SDS011;2113;50.946;14.610;2023-05-16T01:00:39;22.75;;;17.10;;
4198;SDS011;2113;50.946;14.610;2023-05-16T01:03:08;19.50;;;16.05;;
4198;SDS011;2113;50.946;14.610;2023-05-16T01:05:40;23.83;;;16.33;;
4198;SDS011;2113;50.946;14.610;2023-05-16T01:08:08;32.17;;;17.65;;
4198;SDS011;2113;50.946;14.610;2023-05-16T01:10:38;18.88;;;15.35;;
4198;SDS011;2113;50.946;14.610;2023-05-16T01:13:11;24.33;;;16.30;;
4198;SDS011;2113;50.946;14.610;2023-05-16T01:15:46;22.08;;;16.98;;
4198;SDS011;2113;50.946;14.610;2023-05-16T01:18:18;23.60;;;16.65;;
4198;SDS011;2113;50.946;14.610;2023-05-16T01:20:55;24.35;;;17.45;;
4198;SDS011;2113;50.946;14.610;2023-05-16T01:23:32;22.98;;;15.70;;
4198;SDS011;2113;50.946;14.610;2023-05-16T01:26:11;21.63;;;15.60;;
4198;SDS011;2113;50.946;14.610;2023-05-16T01:28:43;23.92;;;17.63;;
4198;SDS011;2113;50.946;14.610;2023-05-16T01:31:13;31.48;;;15.95;;
4198;SDS011;2113;50.946;14.610;2023-05-16T01:33:43;22.88;;;16.33;;
4198;SDS011;2113;50.946;14.610;2023-05-16T01:36:14;21.48;;;16.20;;
4198;SDS011;2113;50.946;14.610;2023-05-16T01:38:52;24.65;;;17.50;;
4198;SDS011;2113;50.946;14.610;2023-05-16T01:41:37;19.73;;;15.80;;
4198;SDS011;2113;50.946;14.610;2023-05-16T01:44:13;24.35;;;18.27;;
4198;SDS011;2113;50.946;14.610;2023-05-16T01:46:48;32.08;;;19.20;;
4198;SDS011;2113;50.946;14.610;2023-05-16T01:49:23;24.10;;;17.38;;
4198;SDS011;2113;50.946;14.610;2023-05-16T01:51:55;31.17;;;17.45;;
4198;SDS011;2113;50.946;14.610;2023-05-16T01:54:30;23.67;;;17.90;;
4198;SDS011;2113;50.946;14.610;2023-05-16T01:57:01;29.63;;;18.80;;
4198;SDS011;2113;50.946;14.610;2023-05-16T01:59:32;23.52;;;17.63;;
4198;SDS011;2113;50.946;14.610;2023-05-16T02:02:01;24.08;;;15.68;;
4198;SDS011;2113;50.946;14.610;2023-05-16T02:04:30;25.95;;;17.02;;
4198;SDS011;2113;50.946;14.610;2023-05-16T02:06:59;25.48;;;17.77;;
4198;SDS011;2113;50.946;14.610;2023-05-16T02:09:28;26.10;;;16.88;;
4198;SDS011;2113;50.946;14.610;2023-05-16T02:11:58;22.73;;;16.42;;
4198;SDS011;2113;50.946;14.610;2023-05-16T02:14:29;26.45;;;17.48;;
4198;SDS011;2113;50.946;14.610;2023-05-16T02:16:57;22.95;;;15.50;;
4198;SDS011;2113;50.946;14.610;2023-05-16T02:19:26;23.30;;;16.13;;
4198;SDS011;2113;50.946;14.610;2023-05-16T02:21:55;24.25;;;16.92;;
4198;SDS011;2113;50.946;14.610;2023-05-16T02:24:23;23.98;;;16.25;;
4198;SDS011;2113;50.946;14.610;2023-05-16T02:26:54;21.35;;;16.02;;
4198;SDS011;2113;50.946;14.610;2023-05-16T02:29:22;20.85;;;15.82;;
4198;SDS011;2113;50.946;14.610;2023-05-16T02:31:52;28.95;;;17.58;;
4198;SDS011;2113;50.946;14.610;2023-05-16T02:34:20;22.50;;;16.73;;
4198;SDS011;2113;50.946;14.610;2023-05-16T02:36:49;27.70;;;17.27;;
4198;SDS011;2113;50.946;14.610;2023-05-16T02:39:17;23.23;;;16.98;;
4198;SDS011;2113;50.946;14.610;2023-05-16T02:41:49;36.38;;;18.58;;
4198;SDS011;2113;50.946;14.610;2023-05-16T02:44:17;26.42;;;17.20;;
4198;SDS011;2113;50.946;14.610;2023-05-16T02:46:46;23.58;;;17.80;;
4198;SDS011;2113;50.946;14.610;2023-05-16T02:49:16;27.15;;;18.70;;
4198;SDS011;2113;50.946;14.610;2023-05-16T02:51:45;25.58;;;18.05;;
4198;SDS011;2113;50.946;14.610;2023-05-16T02:54:13;26.67;;;19.83;;
4198;SDS011;2113;50.946;14.610;2023-05-16T02:56:41;27.63;;;17.20;;
4198;SDS011;2113;50.946;14.610;2023-05-16T02:59:10;24.33;;;18.60;;
4198;SDS011;2113;50.946;14.610;2023-05-16T03:01:39;26.23;;;18.60;;
4198;SDS011;2113;50.946;14.610;2023-05-16T03:04:07;32.40;;;20.25;;
4198;SDS011;2113;50.946;14.610;2023-05-16T03:06:37;25.88;;;18.63;;
4198;SDS011;2113;50.946;14.610;2023-05-16T03:09:06;28.80;;;20.17;;
4198;SDS011;2113;50.946;14.610;2023-05-16T03:11:35;30.98;;;20.70;;
4198;SDS011;2113;50.946;14.610;2023-05-16T03:14:04;26.90;;;20.52;;
4198;SDS011;2113;50.946;14.610;2023-05-16T03:16:32;35.28;;;22.15;;
4198;SDS011;2113;50.946;14.610;2023-05-16T03:19:04;30.73;;;20.85;;
4198;SDS011;2113;50.946;14.610;2023-05-16T03:21:33;32.08;;;22.08;;
4198;SDS011;2113;50.946;14.610;2023-05-16T03:24:04;29.85;;;21.05;;
4198;SDS011;2113;50.946;14.610;2023-05-16T03:26:34;36.17;;;22.27;;
4198;SDS011;2113;50.946;14.610;2023-05-16T03:29:02;32.60;;;23.52;;
4198;SDS011;2113;50.946;14.610;2023-05-16T03:31:31;32.65;;;21.73;;
4198;SDS011;2113;50.946;14.610;2023-05-16T03:33:59;32.10;;;22.55;;
4198;SDS011;2113;50.946;14.610;2023-05-16T03:36:28;30.98;;;22.08;;
4198;SDS011;2113;50.946;14.610;2023-05-16T03:38:57;36.45;;;20.70;;
4198;SDS011;2113;50.946;14.610;2023-05-16T03:41:26;33.90;;;21.80;;
4198;SDS011;2113;50.946;14.610;2023-05-16T03:43:55;31.73;;;21.98;;
4198;SDS011;2113;50.946;14.610;2023-05-16T03:46:23;38.47;;;22.30;;
4198;SDS011;2113;50.946;14.610;2023-05-16T03:48:51;35.20;;;23.20;;
4198;SDS011;2113;50.946;14.610;2023-05-16T03:51:20;31.95;;;22.75;;
4198;SDS011;2113;50.946;14.610;2023-05-16T03:53:48;35.53;;;22.75;;
4198;SDS011;2113;50.946;14.610;2023-05-16T03:56:17;33.15;;;23.05;;
4198;SDS011;2113;50.946;14.610;2023-05-16T03:58:46;33.55;;;20.52;;
4198;SDS011;2113;50.946;14.610;2023-05-16T04:01:18;38.90;;;23.65;;
4198;SDS011;2113;50.946;14.610;2023-05-16T04:03:46;33.95;;;21.83;;
4198;SDS011;2113;50.946;14.610;2023-05-16T04:06:14;37.22;;;23.48;;
4198;SDS011;2113;50.946;14.610;2023-05-16T04:08:43;38.95;;;25.10;;
4198;SDS011;2113;50.946;14.610;2023-05-16T04:11:11;37.63;;;23.17;;
4198;SDS011;2113;50.946;14.610;2023-05-16T04:13:39;40.22;;;21.45;;
4198;SDS011;2113;50.946;14.610;2023-05-16T04:16:09;31.58;;;22.13;;
4198;SDS011;2113;50.946;14.610;2023-05-16T04:18:38;32.22;;;21.27;;
4198;SDS011;2113;50.946;14.610;2023-05-16T04:21:07;30.42;;;22.95;;
4198;SDS011;2113;50.946;14.610;2023-05-16T04:23:37;31.50;;;22.27;;
4198;SDS011;2113;50.946;14.610;2023-05-16T04:26:06;30.08;;;21.30;;
4198;SDS011;2113;50.946;14.610;2023-05-16T04:28:34;35.17;;;21.85;;
4198;SDS011;2113;50.946;14.610;2023-05-16T04:31:02;30.83;;;20.65;;
4198;SDS011;2113;50.946;14.610;2023-05-16T04:33:32;32.15;;;20.65;;
4198;SDS011;2113;50.946;14.610;2023-05-16T04:36:01;30.65;;;21.10;;
4198;SDS011;2113;50.946;14.610;2023-05-16T04:38:32;35.72;;;21.13;;
4198;SDS011;2113;50.946;14.610;2023-05-16T04:41:00;27.00;;;19.90;;
4198;SDS011;2113;50.946;14.610;2023-05-16T04:43:29;35.28;;;22.52;;
4198;SDS011;2113;50.946;14.610;2023-05-16T04:45:58;35.10;;;21.48;;
4198;SDS011;2113;50.946;14.610;2023-05-16T04:48:27;30.73;;;21.00;;
4198;SDS011;2113;50.946;14.610;2023-05-16T04:50:57;28.63;;;21.23;;
4198;SDS011;2113;50.946;14.610;2023-05-16T04:53:25;33.15;;;23.55;;
4198;SDS011;2113;50.946;14.610;2023-05-16T04:55:54;31.05;;;21.00;;
4198;SDS011;2113;50.946;14.610;2023-05-16T04:58:23;35.83;;;24.20;;
4198;SDS011;2113;50.946;14.610;2023-05-16T05:00:51;36.28;;;23.40;;
4198;SDS011;2113;50.946;14.610;2023-05-16T05:03:21;39.28;;;24.73;;
4198;SDS011;2113;50.946;14.610;2023-05-16T05:05:49;37.60;;;26.05;;
4198;SDS011;2113;50.946;14.610;2023-05-16T05:08:19;40.50;;;25.00;;
4198;SDS011;2113;50.946;14.610;2023-05-16T05:10:48;42.42;;;26.23;;
4198;SDS011;2113;50.946;14.610;2023-05-16T05:13:17;32.83;;;23.58;;
4198;SDS011;2113;50.946;14.610;2023-05-16T05:15:45;33.13;;;23.50;;
4198;SDS011;2113;50.946;14.610;2023-05-16T05:18:16;34.05;;;22.98;;
4198;SDS011;2113;50.946;14.610;2023-05-16T05:20:44;39.33;;;24.73;;
4198;SDS011;2113;50.946;14.610;2023-05-16T05:23:13;33.70;;;22.17;;
4198;SDS011;2113;50.946;14.610;2023-05-16T05:25:43;35.35;;;23.50;;
4198;SDS011;2113;50.946;14.610;2023-05-16T05:28:12;40.15;;;23.90;;
4198;SDS011;2113;50.946;14.610;2023-05-16T05:30:40;38.50;;;24.95;;
4198;SDS011;2113;50.946;14.610;2023-05-16T05:33:09;36.78;;;24.55;;
4198;SDS011;2113;50.946;14.610;2023-05-16T05:35:38;36.35;;;25.20;;
4198;SDS011;2113;50.946;14.610;2023-05-16T05:38:06;35.85;;;23.15;;
4198;SDS011;2113;50.946;14.610;2023-05-16T05:40:35;37.22;;;25.77;;
4198;SDS011;2113;50.946;14.610;2023-05-16T05:43:07;37.17;;;23.45;;
4198;SDS011;2113;50.946;14.610;2023-05-16T05:45:36;39.08;;;25.50;;
4198;SDS011;2113;50.946;14.610;2023-05-16T05:48:05;35.60;;;23.30;;
4198;SDS011;2113;50.946;14.610;2023-05-16T05:50:34;38.88;;;24.20;;
4198;SDS011;2113;50.946;14.610;2023-05-16T05:53:02;35.38;;;23.25;;
4198;SDS011;2113;50.946;14.610;2023-05-16T05:55:31;32.78;;;23.27;;
4198;SDS011;2113;50.946;14.610;2023-05-16T05:58:00;35.53;;;25.25;;
4198;SDS011;2113;50.946;14.610;2023-05-16T06:00:33;37.67;;;25.00;;
4198;SDS011;2113;50.946;14.610;2023-05-16T06:03:02;38.10;;;26.08;;
4198;SDS011;2113;50.946;14.610;2023-05-16T06:05:32;38.50;;;26.50;;
4198;SDS011;2113;50.946;14.610;2023-05-16T06:08:00;40.97;;;26.38;;
4198;SDS011;2113;50.946;14.610;2023-05-16T06:10:28;35.60;;;24.17;;
4198;SDS011;2113;50.946;14.610;2023-05-16T06:12:57;33.10;;;23.55;;
4198;SDS011;2113;50.946;14.610;2023-05-16T06:15:25;37.17;;;24.85;;
4198;SDS011;2113;50.946;14.610;2023-05-16T06:17:56;37.20;;;25.70;;
4198;SDS011;2113;50.946;14.610;2023-05-16T06:20:25;39.92;;;26.40;;
4198;SDS011;2113;50.946;14.610;2023-05-16T06:22:54;34.75;;;24.05;;
4198;SDS011;2113;50.946;14.610;2023-05-16T06:25:22;41.90;;;25.00;;
4198;SDS011;2113;50.946;14.610;2023-05-16T06:27:52;34.97;;;25.30;;
4198;SDS011;2113;50.946;14.610;2023-05-16T06:30:22;35.00;;;23.63;;
4198;SDS011;2113;50.946;14.610;2023-05-16T06:32:50;40.33;;;25.73;;
4198;SDS011;2113;50.946;14.610;2023-05-16T06:35:23;42.22;;;26.02;;
4198;SDS011;2113;50.946;14.610;2023-05-16T06:37:53;40.38;;;25.33;;
4198;SDS011;2113;50.946;14.610;2023-05-16T06:40:21;39.90;;;26.15;;
4198;SDS011;2113;50.946;14.610;2023-05-16T06:42:50;39.22;;;25.08;;
4198;SDS011;2113;50.946;14.610;2023-05-16T06:45:18;36.50;;;25.35;;
4198;SDS011;2113;50.946;14.610;2023-05-16T06:47:47;41.58;;;25.08;;
4198;SDS011;2113;50.946;14.610;2023-05-16T06:50:16;40.63;;;24.25;;
4198;SDS011;2113;50.946;14.610;2023-05-16T06:52:46;39.40;;;24.48;;
4198;SDS011;2113;50.946;14.610;2023-05-16T06:55:14;38.00;;;23.58;;
4198;SDS011;2113;50.946;14.610;2023-05-16T06:57:43;43.72;;;26.83;;
4198;SDS011;2113;50.946;14.610;2023-05-16T07:00:11;36.95;;;23.58;;
4198;SDS011;2113;50.946;14.610;2023-05-16T07:02:41;36.78;;;25.83;;
4198;SDS011;2113;50.946;14.610;2023-05-16T07:05:10;41.25;;;25.23;;
4198;SDS011;2113;50.946;14.610;2023-05-16T07:07:38;35.72;;;24.30;;
4198;SDS011;2113;50.946;14.610;2023-05-16T07:10:09;33.13;;;23.75;;
4198;SDS011;2113;50.946;14.610;2023-05-16T07:12:40;37.88;;;23.88;;
4198;SDS011;2113;50.946;14.610;2023-05-16T07:15:09;33.65;;;21.80;;
4198;SDS011;2113;50.946;14.610;2023-05-16T07:17:38;36.25;;;21.85;;
4198;SDS011;2113;50.946;14.610;2023-05-16T07:20:08;34.95;;;23.40;;
4198;SDS011;2113;50.946;14.610;2023-05-16T07:22:40;34.35;;;22.48;;
4198;SDS011;2113;50.946;14.610;2023-05-16T07:25:10;39.40;;;24.45;;
4198;SDS011;2113;50.946;14.610;2023-05-16T07:27:40;34.53;;;22.60;;
4198;SDS011;2113;50.946;14.610;2023-05-16T07:30:11;37.20;;;22.08;;
4198;SDS011;2113;50.946;14.610;2023-05-16T07:32:41;30.48;;;22.80;;
4198;SDS011;2113;50.946;14.610;2023-05-16T07:35:09;30.05;;;22.40;;
4198;SDS011;2113;50.946;14.610;2023-05-16T07:37:38;38.83;;;25.17;;
4198;SDS011;2113;50.946;14.610;2023-05-16T07:40:10;37.10;;;23.77;;
4198;SDS011;2113;50.946;14.610;2023-05-16T07:42:39;37.65;;;24.30;;
4198;SDS011;2113;50.946;14.610;2023-05-16T07:45:08;38.45;;;22.88;;
4198;SDS011;2113;50.946;14.610;2023-05-16T07:47:38;39.83;;;24.20;;
4198;SDS011;2113;50.946;14.610;2023-05-16T07:50:09;36.65;;;25.00;;
4198;SDS011;2113;50.946;14.610;2023-05-16T07:52:38;34.53;;;22.35;;
4198;SDS011;2113;50.946;14.610;2023-05-16T07:55:07;44.50;;;23.23;;
4198;SDS011;2113;50.946;14.610;2023-05-16T07:57:37;38.28;;;25.17;;
4198;SDS011;2113;50.946;14.610;2023-05-16T08:00:06;34.42;;;23.25;;
4198;SDS011;2113;50.946;14.610;2023-05-16T08:02:38;36.72;;;23.48;;
4198;SDS011;2113;50.946;14.610;2023-05-16T08:05:08;40.13;;;23.98;;
4198;SDS011;2113;50.946;14.610;2023-05-16T08:07:37;36.22;;;23.52;;
4198;SDS011;2113;50.946;14.610;2023-05-16T08:10:06;37.92;;;24.40;;
4198;SDS011;2113;50.946;14.610;2023-05-16T08:12:41;39.63;;;26.67;;
4198;SDS011;2113;50.946;14.610;2023-05-16T08:15:14;36.55;;;24.70;;
4198;SDS011;2113;50.946;14.610;2023-05-16T08:17:44;39.33;;;25.50;;
4198;SDS011;2113;50.946;14.610;2023-05-16T08:20:17;39.78;;;26.08;;
4198;SDS011;2113;50.946;14.610;2023-05-16T08:22:46;42.42;;;25.95;;
4198;SDS011;2113;50.946;14.610;2023-05-16T08:25:14;39.85;;;25.25;;
4198;SDS011;2113;50.946;14.610;2023-05-16T08:27:45;48.53;;;26.92;;
4198;SDS011;2113;50.946;14.610;2023-05-16T08:30:20;38.55;;;23.80;;
4198;SDS011;2113;50.946;14.610;2023-05-16T08:32:53;47.50;;;24.25;;
4198;SDS011;2113;50.946;14.610;2023-05-16T08:35:23;41.60;;;24.27;;
4198;SDS011;2113;50.946;14.610;2023-05-16T08:37:54;41.28;;;26.00;;
4198;SDS011;2113;50.946;14.610;2023-05-16T08:40:29;37.35;;;23.05;;
4198;SDS011;2113;50.946;14.610;2023-05-16T08:43:06;36.35;;;23.50;;
4198;SDS011;2113;50.946;14.610;2023-05-16T08:45:39;38.67;;;24.15;;
4198;SDS011;2113;50.946;14.610;2023-05-16T08:48:13;36.28;;;22.10;;
4198;SDS011;2113;50.946;14.610;2023-05-16T08:50:45;41.95;;;25.00;;
4198;SDS011;2113;50.946;14.610;2023-05-16T08:53:20;44.05;;;24.42;;
4198;SDS011;2113;50.946;14.610;2023-05-16T08:55:54;38.20;;;24.10;;
4198;SDS011;2113;50.946;14.610;2023-05-16T08:58:30;44.80;;;26.95;;
4198;SDS011;2113;50.946;14.610;2023-05-16T09:00:59;43.33;;;24.67;;
4198;SDS011;2113;50.946;14.610;2023-05-16T09:03:39;46.33;;;26.67;;
4198;SDS011;2113;50.946;14.610;2023-05-16T09:06:09;43.95;;;24.20;;
4198;SDS011;2113;50.946;14.610;2023-05-16T09:08:38;47.63;;;26.42;;
4198;SDS011;2113;50.946;14.610;2023-05-16T09:11:06;45.88;;;27.75;;
4198;SDS011;2113;50.946;14.610;2023-05-16T09:13:38;49.05;;;27.50;;
4198;SDS011;2113;50.946;14.610;2023-05-16T09:16:07;46.60;;;26.02;;
4198;SDS011;2113;50.946;14.610;2023-05-16T09:18:36;52.03;;;26.17;;
4198;SDS011;2113;50.946;14.610;2023-05-16T09:21:09;45.35;;;26.67;;
4198;SDS011;2113;50.946;14.610;2023-05-16T09:23:39;43.50;;;27.20;;
4198;SDS011;2113;50.946;14.610;2023-05-16T09:26:11;46.90;;;26.13;;
4198;SDS011;2113;50.946;14.610;2023-05-16T09:28:42;47.15;;;26.52;;
4198;SDS011;2113;50.946;14.610;2023-05-16T09:31:20;49.45;;;26.65;;
4198;SDS011;2113;50.946;14.610;2023-05-16T09:33:53;47.58;;;24.52;;
4198;SDS011;2113;50.946;14.610;2023-05-16T09:36:26;49.58;;;27.30;;
4198;SDS011;2113;50.946;14.610;2023-05-16T09:38:55;51.10;;;28.67;;
4198;SDS011;2113;50.946;14.610;2023-05-16T09:41:25;42.75;;;27.10;;
4198;SDS011;2113;50.946;14.610;2023-05-16T09:43:55;45.60;;;27.70;;
4198;SDS011;2113;50.946;14.610;2023-05-16T09:46:25;52.60;;;29.33;;
4198;SDS011;2113;50.946;14.610;2023-05-16T09:48:56;49.78;;;27.08;;
4198;SDS011;2113;50.946;14.610;2023-05-16T09:51:24;46.78;;;26.73;;
4198;SDS011;2113;50.946;14.610;2023-05-16T09:53:55;52.38;;;29.10;;
4198;SDS011;2113;50.946;14.610;2023-05-16T09:56:26;50.38;;;28.25;;
4198;SDS011;2113;50.946;14.610;2023-05-16T09:59:04;52.97;;;28.65;;
4198;SDS011;2113;50.946;14.610;2023-05-16T10:01:37;49.80;;;29.20;;
4198;SDS011;2113;50.946;14.610;2023-05-16T10:04:06;46.47;;;28.40;;
4198;SDS011;2113;50.946;14.610;2023-05-16T10:06:40;51.92;;;27.33;;
4198;SDS011;2113;50.946;14.610;2023-05-16T10:09:10;50.65;;;26.83;;
4198;SDS011;2113;50.946;14.610;2023-05-16T10:11:40;46.10;;;25.00;;
4198;SDS011;2113;50.946;14.610;2023-05-16T10:14:11;48.30;;;25.35;;
4198;SDS011;2113;50.946;14.610;2023-05-16T10:16:45;43.20;;;25.30;;
4198;SDS011;2113;50.946;14.610;2023-05-16T10:19:15;46.38;;;27.13;;
4198;SDS011;2113;50.946;14.610;2023-05-16T10:21:50;44.72;;;24.90;;
4198;SDS011;2113;50.946;14.610;2023-05-16T10:24:23;38.83;;;22.20;;
4198;SDS011;2113;50.946;14.610;2023-05-16T10:26:57;38.83;;;23.00;;
4198;SDS011;2113;50.946;14.610;2023-05-16T10:29:26;41.72;;;24.48;;
4198;SDS011;2113;50.946;14.610;2023-05-16T10:32:09;39.95;;;22.83;;
4198;SDS011;2113;50.946;14.610;2023-05-16T10:34:42;38.95;;;22.27;;
4198;SDS011;2113;50.946;14.610;2023-05-16T10:37:13;46.45;;;23.10;;
4198;SDS011;2113;50.946;14.610;2023-05-16T10:39:44;30.70;;;19.48;;
4198;SDS011;2113;50.946;14.610;2023-05-16T10:42:16;32.53;;;20.75;;
4198;SDS011;2113;50.946;14.610;2023-05-16T10:44:50;34.00;;;18.50;;
4198;SDS011;2113;50.946;14.610;2023-05-16T10:47:32;32.67;;;20.73;;
4198;SDS011;2113;50.946;14.610;2023-05-16T10:50:01;28.98;;;18.30;;
4198;SDS011;2113;50.946;14.610;2023-05-16T10:52:32;31.92;;;17.30;;
4198;SDS011;2113;50.946;14.610;2023-05-16T10:55:01;26.48;;;17.65;;
4198;SDS011;2113;50.946;14.610;2023-05-16T10:57:31;30.55;;;18.40;;
4198;SDS011;2113;50.946;14.610;2023-05-16T11:00:05;31.48;;;17.73;;
4198;SDS011;2113;50.946;14.610;2023-05-16T11:02:52;31.60;;;18.30;;
4198;SDS011;2113;50.946;14.610;2023-05-16T11:05:33;29.05;;;18.95;;
4198;SDS011;2113;50.946;14.610;2023-05-16T11:08:04;33.15;;;19.15;;
4198;SDS011;2113;50.946;14.610;2023-05-16T11:10:34;31.77;;;19.45;;
4198;SDS011;2113;50.946;14.610;2023-05-16T11:13:06;32.40;;;18.60;;
4198;SDS011;2113;50.946;14.610;2023-05-16T11:15:37;34.67;;;20.25;;
4198;SDS011;2113;50.946;14.610;2023-05-16T11:18:07;33.53;;;20.75;;
4198;SDS011;2113;50.946;14.610;2023-05-16T11:20:37;40.47;;;20.13;;
4198;SDS011;2113;50.946;14.610;2023-05-16T11:23:19;38.55;;;21.48;;
4198;SDS011;2113;50.946;14.610;2023-05-16T11:25:54;36.28;;;20.35;;
4198;SDS011;2113;50.946;14.610;2023-05-16T11:28:25;40.22;;;23.38;;
4198;SDS011;2113;50.946;14.610;2023-05-16T11:30:56;47.80;;;23.23;;
4198;SDS011;2113;50.946;14.610;2023-05-16T11:33:29;39.95;;;22.77;;
4198;SDS011;2113;50.946;14.610;2023-05-16T11:36:02;38.28;;;22.25;;
4198;SDS011;2113;50.946;14.610;2023-05-16T11:38:34;41.20;;;22.20;;
4198;SDS011;2113;50.946;14.610;2023-05-16T11:41:03;39.40;;;23.48;;
4198;SDS011;2113;50.946;14.610;2023-05-16T11:43:36;38.53;;;23.40;;
4198;SDS011;2113;50.946;14.610;2023-05-16T11:46:09;51.92;;;23.90;;
4198;SDS011;2113;50.946;14.610;2023-05-16T11:48:39;41.08;;;23.13;;
4198;SDS011;2113;50.946;14.610;2023-05-16T11:51:09;45.35;;;24.30;;
4198;SDS011;2113;50.946;14.610;2023-05-16T11:53:40;36.90;;;22.70;;
4198;SDS011;2113;50.946;14.610;2023-05-16T11:56:09;36.17;;;21.58;;
4198;SDS011;2113;50.946;14.610;2023-05-16T11:58:40;39.13;;;21.60;;
4198;SDS011;2113;50.946;14.610;2023-05-16T12:01:11;44.53;;;24.00;;
4198;SDS011;2113;50.946;14.610;2023-05-16T12:03:41;43.67;;;23.73;;
4198;SDS011;2113;50.946;14.610;2023-05-16T12:06:10;37.92;;;20.45;;
4198;SDS011;2113;50.946;14.610;2023-05-16T12:08:48;34.35;;;21.20;;
4198;SDS011;2113;50.946;14.610;2023-05-16T12:11:17;40.47;;;22.17;;
4198;SDS011;2113;50.946;14.610;2023-05-16T12:13:47;38.97;;;22.00;;
4198;SDS011;2113;50.946;14.610;2023-05-16T12:16:18;29.77;;;19.73;;
4198;SDS011;2113;50.946;14.610;2023-05-16T12:18:48;33.50;;;20.55;;
4198;SDS011;2113;50.946;14.610;2023-05-16T12:21:17;35.10;;;19.10;;
4198;SDS011;2113;50.946;14.610;2023-05-16T12:23:46;37.25;;;20.38;;
4198;SDS011;2113;50.946;14.610;2023-05-16T12:26:14;34.22;;;20.02;;
4198;SDS011;2113;50.946;14.610;2023-05-16T12:28:53;34.47;;;18.25;;
4198;SDS011;2113;50.946;14.610;2023-05-16T12:31:25;30.08;;;18.80;;
4198;SDS011;2113;50.946;14.610;2023-05-16T12:33:58;26.85;;;16.50;;
4198;SDS011;2113;50.946;14.610;2023-05-16T12:36:30;27.60;;;16.83;;
4198;SDS011;2113;50.946;14.610;2023-05-16T12:39:00;29.48;;;18.00;;
4198;SDS011;2113;50.946;14.610;2023-05-16T12:41:31;27.65;;;16.38;;
4198;SDS011;2113;50.946;14.610;2023-05-16T12:44:06;24.73;;;15.80;;
4198;SDS011;2113;50.946;14.610;2023-05-16T12:46:46;23.42;;;14.57;;
4198;SDS011;2113;50.946;14.610;2023-05-16T12:49:19;23.38;;;15.20;;
4198;SDS011;2113;50.946;14.610;2023-05-16T12:51:49;24.63;;;16.45;;
4198;SDS011;2113;50.946;14.610;2023-05-16T12:54:18;30.60;;;19.58;;
4198;SDS011;2113;50.946;14.610;2023-05-16T12:56:49;37.60;;;20.83;;
4198;SDS011;2113;50.946;14.610;2023-05-16T12:59:17;37.08;;;17.52;;
4198;SDS011;2113;50.946;14.610;2023-05-16T13:01:49;28.48;;;17.70;;
4198;SDS011;2113;50.946;14.610;2023-05-16T13:04:18;27.17;;;17.48;;
4198;SDS011;2113;50.946;14.610;2023-05-16T13:06:49;34.80;;;18.77;;
4198;SDS011;2113;50.946;14.610;2023-05-16T13:09:20;30.48;;;17.40;;
4198;SDS011;2113;50.946;14.610;2023-05-16T13:11:49;29.45;;;17.35;;
4198;SDS011;2113;50.946;14.610;2023-05-16T13:14:18;33.03;;;17.92;;
4198;SDS011;2113;50.946;14.610;2023-05-16T13:16:51;33.20;;;17.60;;
4198;SDS011;2113;50.946;14.610;2023-05-16T13:19:21;25.85;;;16.92;;
4198;SDS011;2113;50.946;14.610;2023-05-16T13:21:51;26.77;;;16.98;;
4198;SDS011;2113;50.946;14.610;2023-05-16T13:24:19;34.08;;;18.73;;
4198;SDS011;2113;50.946;14.610;2023-05-16T13:26:48;28.67;;;17.92;;
4198;SDS011;2113;50.946;14.610;2023-05-16T13:29:16;30.40;;;18.00;;
4198;SDS011;2113;50.946;14.610;2023-05-16T13:31:45;28.25;;;18.92;;
4198;SDS011;2113;50.946;14.610;2023-05-16T13:34:16;36.42;;;21.83;;
4198;SDS011;2113;50.946;14.610;2023-05-16T13:36:45;32.38;;;18.38;;
4198;SDS011;2113;50.946;14.610;2023-05-16T13:39:20;33.92;;;19.80;;
4198;SDS011;2113;50.946;14.610;2023-05-16T13:41:49;33.00;;;20.85;;
4198;SDS011;2113;50.946;14.610;2023-05-16T13:44:18;28.83;;;17.58;;
4198;SDS011;2113;50.946;14.610;2023-05-16T13:46:48;28.50;;;17.88;;
4198;SDS011;2113;50.946;14.610;2023-05-16T13:49:21;29.00;;;17.20;;
4198;SDS011;2113;50.946;14.610;2023-05-16T13:51:49;30.30;;;17.33;;
4198;SDS011;2113;50.946;14.610;2023-05-16T13:54:18;38.03;;;17.75;;
4198;SDS011;2113;50.946;14.610;2023-05-16T13:56:48;23.40;;;15.60;;
4198;SDS011;2113;50.946;14.610;2023-05-16T13:59:17;29.05;;;17.42;;
4198;SDS011;2113;50.946;14.610;2023-05-16T14:02:04;21.88;;;15.38;;
4198;SDS011;2113;50.946;14.610;2023-05-16T14:04:34;24.63;;;15.25;;
4198;SDS011;2113;50.946;14.610;2023-05-16T14:07:03;23.00;;;16.15;;
4198;SDS011;2113;50.946;14.610;2023-05-16T14:09:31;23.80;;;13.90;;
4198;SDS011;2113;50.946;14.610;2023-05-16T14:12:01;24.58;;;15.93;;
4198;SDS011;2113;50.946;14.610;2023-05-16T14:14:30;20.13;;;13.95;;
4198;SDS011;2113;50.946;14.610;2023-05-16T14:16:59;24.13;;;13.98;;
4198;SDS011;2113;50.946;14.610;2023-05-16T14:19:27;20.08;;;14.25;;
4198;SDS011;2113;50.946;14.610;2023-05-16T14:22:01;19.52;;;13.32;;
4198;SDS011;2113;50.946;14.610;2023-05-16T14:24:31;19.75;;;13.60;;
4198;SDS011;2113;50.946;14.610;2023-05-16T14:27:00;20.42;;;13.07;;
4198;SDS011;2113;50.946;14.610;2023-05-16T14:29:33;15.65;;;12.02;;
4198;SDS011;2113;50.946;14.610;2023-05-16T14:32:01;19.02;;;12.13;;
4198;SDS011;2113;50.946;14.610;2023-05-16T14:34:30;15.82;;;11.73;;
4198;SDS011;2113;50.946;14.610;2023-05-16T14:37:02;16.48;;;13.50;;
4198;SDS011;2113;50.946;14.610;2023-05-16T14:39:31;19.05;;;13.48;;
4198;SDS011;2113;50.946;14.610;2023-05-16T14:42:00;18.33;;;12.40;;
4198;SDS011;2113;50.946;14.610;2023-05-16T14:44:28;15.98;;;12.00;;
4198;SDS011;2113;50.946;14.610;2023-05-16T14:46:57;16.20;;;11.70;;
4198;SDS011;2113;50.946;14.610;2023-05-16T14:49:25;17.63;;;10.93;;
4198;SDS011;2113;50.946;14.610;2023-05-16T14:51:56;15.85;;;11.73;;